^^
Station Historical Data
 
Daily Summary for August 19, 2018 Units:  English    Metric   Both
« Previous Day
Next Day »
Daily Weekly Monthly Yearly Custom
  Current: High: Low: Average:
Temperature: 24.2 °F TemperatureC °F 12.9 °F 15.4 °F
Dew Point: 19.7 °F DewpointC °F 12.1 °F 14 °F
Humidity: 76% Humidity% 76% 91%
Wind Speed: 5.6mph WindSpeedKMHmph 0.0mph 0.8mph
Wind Gust: 3.2mph WindSpeedGustKMHmph - -
WindNNW - - SSW
Pressure: 1014.6 in PressurehPa in 1013.5 in -
Precipitation: 0.0 in      
Historical Graphs
 
 
Tabular Data for August 19, 2018
Time Temperature Dew Point Pressure Wind Wind Speed Wind Gust Humidity Rainfall Rate (Hourly) solar Conditions
TemperatureC °F DewpointC °F PressurehPa in Calm     Humidity% HourlyPrecipMM in SoftwareType W/m2 Conditions
00:04 15.5 °F 14.1 °F 1013.7 in Calm     91% 0.0 in WeatherDisplay:10.37 W/m2 CLR
00:09 15.2 °F 13.7 °F 1013.7 in Calm     91% 0.0 in WeatherDisplay:10.37 W/m2 CLR
00:14 15.2 °F 13.7 °F 1013.7 in Calm     91% 0.0 in WeatherDisplay:10.37 W/m2 CLR
00:19 15.2 °F 13.7 °F 1014.1 in Calm     91% 0.0 in WeatherDisplay:10.37 W/m2 CLR
00:24 15.2 °F 13.7 °F 1013.7 in Calm     91% 0.0 in WeatherDisplay:10.37 W/m2 CLR
00:29 15.2 °F 14.1 °F 1013.7 in Calm     93% 0.0 in WeatherDisplay:10.37 W/m2 CLR
00:34 15.2 °F 14.1 °F 1013.7 in Calm     93% 0.0 in WeatherDisplay:10.37 W/m2 CLR
00:39 15.1 °F 14.0 °F 1013.7 in Calm     93% 0.0 in WeatherDisplay:10.37 W/m2 CLR
00:44 15.1 °F 14.0 °F 1013.7 in Calm     93% 0.0 in WeatherDisplay:10.37 W/m2 CLR
00:49 15.1 °F 14.0 °F 1013.7 in Calm     93% 0.0 in WeatherDisplay:10.37 W/m2 CLR
00:54 14.9 °F 13.8 °F 1013.7 in Calm     93% 0.0 in WeatherDisplay:10.37 W/m2 CLR
00:59 14.7 °F 13.6 °F 1013.7 in Calm     93% 0.0 in WeatherDisplay:10.37 W/m2 CLR
01:04 14.7 °F 13.6 °F 1013.7 in Calm     93% 0.0 in WeatherDisplay:10.37 W/m2 CLR
01:09 14.6 °F 13.5 °F 1013.7 in Calm     93% 0.0 in WeatherDisplay:10.37 W/m2 CLR
01:14 14.6 °F 13.5 °F 1013.7 in Calm     93% 0.0 in WeatherDisplay:10.37 W/m2 CLR
01:19 14.4 °F 13.3 °F 1013.7 in Calm     93% 0.0 in WeatherDisplay:10.37 W/m2 CLR
01:24 14.3 °F 13.2 °F 1013.8 in Calm     93% 0.0 in WeatherDisplay:10.37 W/m2 CLR
01:29 14.3 °F 13.2 °F 1013.5 in Calm     93% 0.0 in WeatherDisplay:10.37 W/m2 CLR
01:34 14.3 °F 13.2 °F 1013.8 in Calm     93% 0.0 in WeatherDisplay:10.37 W/m2 CLR
01:39 14.3 °F 13.2 °F 1013.5 in Calm     93% 0.0 in WeatherDisplay:10.37 W/m2 CLR
01:44 14.3 °F 13.2 °F 1013.5 in Calm     93% 0.0 in WeatherDisplay:10.37 W/m2 CLR
01:49 14.3 °F 13.2 °F 1013.8 in Calm     93% 0.0 in WeatherDisplay:10.37 W/m2 CLR
01:54 14.3 °F 13.2 °F 1013.8 in Calm     93% 0.0 in WeatherDisplay:10.37 W/m2 CLR
01:59 14.2 °F 13.1 °F 1013.8 in Calm     93% 0.0 in WeatherDisplay:10.37 W/m2 CLR
02:04 14.2 °F 13.1 °F 1013.8 in Calm     93% 0.0 in WeatherDisplay:10.37 W/m2 CLR
02:09 14.1 °F 13.0 °F 1013.8 in Calm     93% 0.0 in WeatherDisplay:10.37 W/m2 CLR
02:14 14.1 °F 13.0 °F 1013.8 in Calm     93% 0.0 in WeatherDisplay:10.37 W/m2 CLR
02:19 14.0 °F 12.9 °F 1013.5 in Calm     93% 0.0 in WeatherDisplay:10.37 W/m2 CLR
02:24 14.0 °F 12.9 °F 1013.5 in Calm     93% 0.0 in WeatherDisplay:10.37 W/m2 CLR
02:29 14.0 °F 12.9 °F 1013.8 in Calm     93% 0.0 in WeatherDisplay:10.37 W/m2 CLR
02:34 13.8 °F 12.7 °F 1013.8 in Calm     93% 0.0 in WeatherDisplay:10.37 W/m2 CLR
02:39 13.7 °F 12.6 °F 1013.5 in Calm     93% 0.0 in WeatherDisplay:10.37 W/m2 CLR
02:44 13.8 °F 12.7 °F 1013.9 in Calm     93% 0.0 in WeatherDisplay:10.37 W/m2 CLR
02:49 13.7 °F 12.6 °F 1013.9 in Calm     93% 0.0 in WeatherDisplay:10.37 W/m2 CLR
02:54 13.7 °F 12.6 °F 1013.9 in Calm     93% 0.0 in WeatherDisplay:10.37 W/m2 CLR
02:59 13.6 °F 12.5 °F 1013.9 in Calm     93% 0.0 in WeatherDisplay:10.37 W/m2 CLR
03:04 13.5 °F 12.4 °F 1013.9 in Calm     93% 0.0 in WeatherDisplay:10.37 W/m2 CLR
03:09 13.7 °F 12.9 °F 1013.9 in Calm     95% 0.0 in WeatherDisplay:10.37 W/m2 CLR
03:14 13.6 °F 12.8 °F 1013.9 in Calm     95% 0.0 in WeatherDisplay:10.37 W/m2 CLR
03:19 13.6 °F 12.8 °F 1013.9 in Calm     95% 0.0 in WeatherDisplay:10.37 W/m2 CLR
03:24 13.6 °F 12.8 °F 1013.9 in Calm     95% 0.0 in WeatherDisplay:10.37 W/m2 CLR
03:29 13.5 °F 12.7 °F 1013.9 in Calm     95% 0.0 in WeatherDisplay:10.37 W/m2 CLR
03:34 13.3 °F 12.5 °F 1013.9 in Calm     95% 0.0 in WeatherDisplay:10.37 W/m2 CLR
03:39 13.3 °F 12.5 °F 1014.4 in Calm     95% 0.0 in WeatherDisplay:10.37 W/m2 CLR
03:44 13.3 °F 12.5 °F 1014.0 in Calm     95% 0.0 in WeatherDisplay:10.37 W/m2 CLR
03:49 13.3 °F 12.5 °F 1014.4 in Calm     95% 0.0 in WeatherDisplay:10.37 W/m2 CLR
03:54 13.3 °F 12.5 °F 1014.0 in Calm     95% 0.0 in WeatherDisplay:10.37 W/m2 CLR
03:59 13.2 °F 12.4 °F 1014.0 in Calm     95% 0.0 in WeatherDisplay:10.37 W/m2 CLR
04:04 13.2 °F 12.4 °F 1014.0 in Calm     95% 0.0 in WeatherDisplay:10.37 W/m2 CLR
04:09 13.2 °F 12.4 °F 1014.0 in Calm     95% 0.0 in WeatherDisplay:10.37 W/m2 CLR
04:14 13.2 °F 12.4 °F 1014.0 in Calm     95% 0.0 in WeatherDisplay:10.37 W/m2 CLR
04:19 13.1 °F 12.3 °F 1014.0 in Calm     95% 0.0 in WeatherDisplay:10.37 W/m2 CLR
04:24 12.9 °F 12.1 °F 1014.4 in Calm     95% 0.0 in WeatherDisplay:10.37 W/m2 CLR
04:29 12.9 °F 12.1 °F 1014.0 in Calm     95% 0.0 in WeatherDisplay:10.37 W/m2 CLR
04:34 12.9 °F 12.1 °F 1014.0 in Calm     95% 0.0 in WeatherDisplay:10.37 W/m2 CLR
04:39 13.1 °F 12.3 °F 1013.7 in Calm     95% 0.0 in WeatherDisplay:10.37 W/m2 CLR
04:44 13.2 °F 12.4 °F 1013.7 in Calm     95% 0.0 in WeatherDisplay:10.37 W/m2 CLR
04:49 13.2 °F 12.4 °F 1014.0 in Calm   0.3 mph 95% 0.0 in WeatherDisplay:10.37 W/m2 CLR
04:54 13.2 °F 12.4 °F 1014.0 in Calm     95% 0.0 in WeatherDisplay:10.37 W/m2 CLR
04:59 13.1 °F 12.3 °F 1013.7 in Calm     95% 0.0 in WeatherDisplay:10.37 W/m2 CLR
05:04 13.1 °F 12.3 °F 1013.8 in Calm     95% 0.0 in WeatherDisplay:10.37 W/m2 CLR
05:09 13.1 °F 12.3 °F 1013.8 in Calm     95% 0.0 in WeatherDisplay:10.37 W/m2 CLR
05:14 13.2 °F 12.6 °F 1013.8 in Calm     96% 0.0 in WeatherDisplay:10.37 W/m2 CLR
05:19 12.9 °F 12.3 °F 1013.8 in Calm     96% 0.0 in WeatherDisplay:10.37 W/m2 CLR
05:24 12.9 °F 12.3 °F 1013.5 in Calm     96% 0.0 in WeatherDisplay:10.37 W/m2 CLR
05:29 12.9 °F 12.3 °F 1013.8 in Calm     96% 0.0 in WeatherDisplay:10.37 W/m2 CLR
05:34 12.9 °F 12.3 °F 1013.8 in Calm     96% 0.0 in WeatherDisplay:10.37 W/m2 CLR
05:39 13.2 °F 12.6 °F 1014.1 in West 1.9 mph 0.6 mph 96% 0.0 in WeatherDisplay:10.37 W/m2 CLR
05:44 13.5 °F 12.9 °F 1014.5 in West 3.7 mph 0.6 mph 96% 0.0 in WeatherDisplay:10.37 W/m2 CLR
05:49 13.7 °F 13.1 °F 1014.5 in West 1.9 mph 1.4 mph 96% 0.0 in WeatherDisplay:10.37 W/m2 FEW
05:54 13.7 °F 13.1 °F 1014.1 in Calm   0.3 mph 96% 0.0 in WeatherDisplay:10.37 W/m2 FEW
05:59 13.8 °F 13.2 °F 1014.6 in Calm     96% 0.0 in WeatherDisplay:10.37 W/m2 FEW
06:04 13.8 °F 13.2 °F 1014.6 in Calm     96% 0.0 in WeatherDisplay:10.37 W/m2 BKN
06:09 13.8 °F 13.2 °F 1014.6 in Calm     96% 0.0 in WeatherDisplay:10.37 W/m2 BKN
06:14 14.1 °F 13.4 °F 1014.6 in Calm     96% 0.0 in WeatherDisplay:10.37 W/m2 BKN
06:19 14.1 °F 13.4 °F 1014.6 in Calm     96% 0.0 in WeatherDisplay:10.37 W/m2 FEW
06:24 14.1 °F 13.4 °F 1014.6 in Calm     96% 0.0 in WeatherDisplay:10.37 W/m2 FEW
06:29 14.0 °F 13.4 °F 1014.2 in Calm     96% 0.0 in WeatherDisplay:10.37 W/m2 FEW
06:34 13.8 °F 13.2 °F 1014.6 in Calm     96% 0.0 in WeatherDisplay:10.37 W/m2 FEW
06:39 13.8 °F 13.2 °F 1014.2 in Calm     96% 0.0 in WeatherDisplay:10.37 W/m2 FEW
06:44 13.7 °F 13.1 °F 1014.2 in Calm     96% 0.0 in WeatherDisplay:10.37 W/m2 FEW
06:49 13.7 °F 13.1 °F 1014.2 in Calm     96% 0.0 in WeatherDisplay:10.37 W/m2 FEW
06:54 13.7 °F 13.1 °F 1014.2 in Calm     96% 0.0 in WeatherDisplay:10.37 W/m2 FEW
06:59 13.7 °F 13.1 °F 1014.2 in Calm     96% 0.0 in WeatherDisplay:10.37 W/m2 FEW
07:04 14.0 °F 13.4 °F 1013.9 in Calm   0.3 mph 96% 0.0 in WeatherDisplay:10.37 W/m2 CLR
07:09 14.6 °F 13.9 °F 1014.2 in Calm     96% 0.0 in WeatherDisplay:10.37 W/m2 CLR
07:14 14.7 °F 14.1 °F 1014.2 in West 1.9 mph 0.6 mph 96% 0.0 in WeatherDisplay:10.37 W/m2 CLR
07:19 15.0 °F 14.2 °F 1014.2 in Calm     95% 0.0 in WeatherDisplay:10.37 W/m2 CLR
07:24 15.6 °F 14.4 °F 1014.2 in Calm     93% 0.0 in WeatherDisplay:10.37 W/m2 CLR
07:29 15.7 °F 14.6 °F 1014.2 in Calm     93% 0.0 in WeatherDisplay:10.37 W/m2 CLR
07:34 16.3 °F 15.2 °F 1014.7 in SW 1.9 mph 0.6 mph 93% 0.0 in WeatherDisplay:10.37 W/m2 CLR
07:39 16.7 °F 15.2 °F 1014.7 in Calm     91% 0.0 in WeatherDisplay:10.37 W/m2 CLR
07:44 16.9 °F 15.4 °F 1014.7 in West 3.7 mph 1.8 mph 91% 0.0 in WeatherDisplay:10.37 W/m2 CLR
07:49 17.6 °F 16.1 °F 1014.7 in SSE 1.9 mph 1.4 mph 91% 0.0 in WeatherDisplay:10.37 W/m2 CLR
07:54 17.7 °F 16.1 °F 1015.0 in SSW 1.9 mph 1.4 mph 90% 0.0 in WeatherDisplay:10.37 W/m2 CLR
07:59 17.8 °F 15.8 °F 1015.0 in West 1.9 mph 0.3 mph 88% 0.0 in WeatherDisplay:10.37 W/m2 CLR
08:04 18.7 °F 16.3 °F 1015.0 in South 1.9 mph 0.3 mph 86% 0.0 in WeatherDisplay:10.37 W/m2 CLR
08:09 18.6 °F 16.2 °F 1015.0 in SSW 3.2 mph 0.6 mph 86% 0.0 in WeatherDisplay:10.37 W/m2 CLR
08:14 18.8 °F 16.4 °F 1015.0 in South 3.7 mph 2.1 mph 86% 0.0 in WeatherDisplay:10.37 W/m2 CLR
08:19 18.9 °F 16.5 °F 1015.0 in SSW 3.7 mph 2.1 mph 86% 0.0 in WeatherDisplay:10.37 W/m2 CLR
08:24 19.2 °F 16.8 °F 1015.0 in WSW 3.7 mph 1.4 mph 86% 0.0 in WeatherDisplay:10.37 W/m2 CLR
08:29 19.4 °F 17.0 °F 1015.0 in SSW 3.7 mph 2.1 mph 86% 0.0 in WeatherDisplay:10.37 W/m2 CLR
08:34 19.6 °F 17.0 °F 1015.0 in South 5.6 mph 2.1 mph 85% 0.0 in WeatherDisplay:10.37 W/m2 CLR
08:39 19.6 °F 17.0 °F 1015.0 in West 3.7 mph 2.9 mph 85% 0.0 in WeatherDisplay:10.37 W/m2 CLR
08:44 20.0 °F 17.4 °F 1015.0 in West 3.7 mph 1.1 mph 85% 0.0 in WeatherDisplay:10.37 W/m2 CLR
08:49 20.3 °F 17.3 °F 1015.0 in NW 1.4 mph 0.6 mph 83% 0.0 in WeatherDisplay:10.37 W/m2 CLR
08:54 20.6 °F 17.6 °F 1014.7 in South 1.9 mph 1.1 mph 83% 0.0 in WeatherDisplay:10.37 W/m2 CLR
08:59 21.0 °F 18.0 °F 1014.7 in NNE 1.9 mph 0.6 mph 83% 0.0 in WeatherDisplay:10.37 W/m2 CLR
09:04 21.4 °F 18.0 °F 1014.2 in Calm   0.3 mph 81% 0.0 in WeatherDisplay:10.37 W/m2 CLR
09:09 21.7 °F 18.3 °F 1014.7 in ENE 1.9 mph 1.1 mph 81% 0.0 in WeatherDisplay:10.37 W/m2 CLR
09:14 22.2 °F 18.8 °F 1014.2 in NNE 1.9 mph 0.6 mph 81% 0.0 in WeatherDisplay:10.37 W/m2 CLR
09:19 22.6 °F 19.2 °F 1014.2 in NNE 1.9 mph 1.4 mph 81% 0.0 in WeatherDisplay:10.37 W/m2 CLR
09:24 23.1 °F 19.4 °F 1014.6 in East 1.9 mph 3.2 mph 80% 0.0 in WeatherDisplay:10.37 W/m2 CLR
09:29 23.0 °F 19.4 °F 1014.2 in SE 3.7 mph 2.1 mph 80% 0.0 in WeatherDisplay:10.37 W/m2 CLR
09:34 23.2 °F 19.6 °F 1014.6 in SSE 3.7 mph 1.8 mph 80% 0.0 in WeatherDisplay:10.37 W/m2 CLR
09:39 23.3 °F 19.7 °F 1014.6 in SSW 3.7 mph 3.2 mph 80% 0.0 in WeatherDisplay:10.37 W/m2 CLR
09:44 24.1 °F 20.0 °F 1014.6 in West 3.7 mph 2.6 mph 78% 0.0 in WeatherDisplay:10.37 W/m2 CLR
09:49 24.2 °F 19.7 °F 1014.6 in NNW 3.7 mph 2.6 mph 76% 0.0 in WeatherDisplay:10.37 W/m2 CLR
09:54 24.2 °F 19.7 °F 1014.6 in NNW 5.6 mph 3.2 mph 76% 0.0 in WeatherDisplay:10.37 W/m2 CLR
Juneau County Weather
Compliments of Weather Underground - 3.25 mb